Time;durP1;ratioP1;P1;durP2;ratioP2;P2;SDS_P1;SDS_P2;PMS_P1;PMS_P2;Temp;Humidity;BMP_temperature;BMP_pressure;BME280_temperature;BME280_humidity;BME280_pressure;Samples;Min_cycle;Max_cycle;Signal;HPM_P1;HPM_P2
2021/11/16 00:01:54;;;;;;;79.63;30.05;;;9.40;99.90;;;;;;5033484;28;20044;-93
2021/11/16 00:04:20;;;;;;;85.65;31.98;;;9.40;99.90;;;;;;5033650;28;20025;-94
2021/11/16 00:06:51;;;;;;;88.82;31.42;;;9.50;99.90;;;;;;5033423;28;20044;-94
2021/11/16 00:09:17;;;;;;;76.45;29.65;;;9.50;99.90;;;;;;5033819;28;20029;-94
2021/11/16 00:11:43;;;;;;;85.28;32.15;;;9.50;99.90;;;;;;5033437;28;20017;-94
2021/11/16 00:14:09;;;;;;;85.03;33.20;;;9.50;99.90;;;;;;5033314;28;20546;-93
2021/11/16 00:16:39;;;;;;;91.57;31.88;;;9.50;99.90;;;;;;5034448;28;20038;-93
2021/11/16 00:19:09;;;;;;;89.85;31.20;;;9.40;99.90;;;;;;5041911;28;20034;-94
2021/11/16 00:21:34;;;;;;;83.18;31.08;;;9.40;99.90;;;;;;5036164;28;20029;-93
2021/11/16 00:24:07;;;;;;;90.82;32.38;;;9.40;99.90;;;;;;5032756;28;20021;-93
2021/11/16 00:26:33;;;;;;;83.60;32.22;;;9.40;99.90;;;;;;5034145;28;20026;-92
2021/11/16 00:28:58;;;;;;;95.10;31.73;;;9.40;99.90;;;;;;5034017;28;20032;-92
2021/11/16 00:31:24;;;;;;;85.40;31.55;;;9.30;99.90;;;;;;5033032;28;20045;-92
2021/11/16 00:33:50;;;;;;;95.53;32.55;;;9.40;99.90;;;;;;5033087;28;20021;-92
2021/11/16 00:36:16;;;;;;;90.85;31.27;;;9.40;99.90;;;;;;5033118;28;20065;-93
2021/11/16 00:38:42;;;;;;;103.43;34.00;;;9.40;99.90;;;;;;5033341;28;20034;-93
2021/11/16 00:41:09;;;;;;;87.28;30.88;;;9.40;99.90;;;;;;5033167;28;20030;-94
2021/11/16 00:43:36;;;;;;;89.22;31.90;;;9.40;99.90;;;;;;5032739;28;20029;-94
2021/11/16 00:46:01;;;;;;;87.22;31.50;;;9.40;99.90;;;;;;5033099;28;20116;-94
2021/11/16 00:48:27;;;;;;;92.60;31.80;;;9.40;99.90;;;;;;5033182;28;20061;-92
2021/11/16 00:50:56;;;;;;;99.35;33.03;;;9.40;99.90;;;;;;5033555;28;20048;-92
2021/11/16 00:53:24;;;;;;;90.05;31.83;;;9.40;99.90;;;;;;5033037;28;20025;-94
2021/11/16 00:55:51;;;;;;;95.03;32.00;;;9.40;99.90;;;;;;5032842;28;20028;-93
2021/11/16 00:58:18;;;;;;;81.00;31.08;;;9.40;99.90;;;;;;5032867;28;20037;-91
2021/11/16 01:00:44;;;;;;;85.05;33.00;;;9.40;99.90;;;;;;5032844;28;20026;-94
2021/11/16 01:03:11;;;;;;;78.28;30.13;;;9.40;99.90;;;;;;5033470;28;20088;-94
2021/11/16 01:05:38;;;;;;;90.00;32.33;;;9.40;99.90;;;;;;5033800;28;20458;-93
2021/11/16 01:08:05;;;;;;;90.40;31.92;;;9.40;99.90;;;;;;5032879;28;20497;-95
2021/11/16 01:10:32;;;;;;;88.93;31.60;;;9.40;99.90;;;;;;5032540;28;20047;-95
2021/11/16 01:12:58;;;;;;;100.38;33.50;;;9.40;99.90;;;;;;5032781;28;20025;-95
2021/11/16 01:15:24;;;;;;;87.28;31.58;;;9.40;99.90;;;;;;5032729;28;20035;-93
2021/11/16 01:17:50;;;;;;;97.38;33.33;;;9.40;99.90;;;;;;5032956;28;20041;-95
2021/11/16 01:20:18;;;;;;;88.20;32.88;;;9.40;99.90;;;;;;5032963;28;20024;-93
2021/11/16 01:22:45;;;;;;;85.97;30.48;;;9.40;99.90;;;;;;5032940;28;20025;-93
2021/11/16 01:25:11;;;;;;;96.00;32.70;;;9.50;99.90;;;;;;5032823;28;20080;-93
2021/11/16 01:27:37;;;;;;;93.90;32.85;;;9.50;99.90;;;;;;5032690;28;20356;-94
2021/11/16 01:30:11;;;;;;;96.10;32.97;;;9.50;99.90;;;;;;5033498;28;20497;-93
2021/11/16 01:32:42;;;;;;;103.30;33.13;;;9.40;99.90;;;;;;5033901;28;20029;-93
2021/11/16 01:35:08;;;;;;;81.18;30.15;;;9.40;99.90;;;;;;5033306;28;20045;-93
2021/11/16 01:37:35;;;;;;;85.60;32.25;;;9.40;99.90;;;;;;5036721;28;20048;-93
2021/11/16 01:40:04;;;;;;;100.85;35.47;;;9.40;99.90;;;;;;5036565;28;20049;-93
2021/11/16 01:42:29;;;;;;;94.93;32.75;;;9.40;99.90;;;;;;5036306;28;20490;-93
2021/11/16 01:44:56;;;;;;;95.18;33.92;;;9.50;99.90;;;;;;5036599;28;20032;-94
2021/11/16 01:47:21;;;;;;;102.90;34.17;;;9.40;99.90;;;;;;5036445;28;20030;-94
2021/11/16 01:49:47;;;;;;;91.82;32.05;;;9.50;99.90;;;;;;5036745;28;20076;-93
2021/11/16 01:52:15;;;;;;;92.47;32.53;;;9.50;99.90;;;;;;5036001;28;20471;-94
2021/11/16 01:54:41;;;;;;;98.40;33.85;;;9.50;99.90;;;;;;5036855;28;20021;-93
2021/11/16 01:57:06;;;;;;;93.03;32.38;;;9.50;99.90;;;;;;5039858;28;20518;-92
2021/11/16 01:59:33;;;;;;;113.13;34.97;;;9.50;99.90;;;;;;5039633;28;20021;-92
2021/11/16 02:02:00;;;;;;;103.22;33.45;;;9.50;99.90;;;;;;5038388;28;20398;-93
2021/11/16 02:04:26;;;;;;;102.63;33.45;;;9.50;99.90;;;;;;5036772;28;20125;-93
2021/11/16 02:06:51;;;;;;;97.13;32.97;;;9.50;99.90;;;;;;5035696;28;20049;-93
2021/11/16 02:09:18;;;;;;;88.85;30.48;;;9.50;99.90;;;;;;5035848;28;20036;-94
2021/11/16 02:11:45;;;;;;;101.70;33.08;;;9.50;99.90;;;;;;5035550;28;20021;-94
2021/11/16 02:14:13;;;;;;;100.10;32.20;;;9.50;99.90;;;;;;5035847;28;20029;-94
2021/11/16 02:16:39;;;;;;;86.00;31.42;;;9.50;99.90;;;;;;5035351;28;20136;-94
2021/11/16 02:19:10;;;;;;;81.35;29.58;;;9.50;99.90;;;;;;5035716;28;20062;-92
2021/11/16 02:21:37;;;;;;;71.57;27.08;;;9.50;99.90;;;;;;5035774;28;20033;-93
2021/11/16 02:24:04;;;;;;;79.85;26.88;;;9.60;99.90;;;;;;5035233;28;20030;-93
2021/11/16 02:26:31;;;;;;;67.40;25.48;;;9.60;99.90;;;;;;5035285;28;20427;-94
2021/11/16 02:28:58;;;;;;;61.00;24.45;;;9.60;99.90;;;;;;5035226;28;20040;-93
2021/11/16 02:31:24;;;;;;;59.70;24.45;;;9.60;99.90;;;;;;5035528;28;20029;-93
2021/11/16 02:33:50;;;;;;;60.95;25.13;;;9.60;99.90;;;;;;5035046;28;20028;-93
2021/11/16 02:36:16;;;;;;;60.75;24.25;;;9.60;99.90;;;;;;5034645;28;20064;-93
2021/11/16 02:38:43;;;;;;;74.35;27.77;;;9.70;99.90;;;;;;5035595;28;20106;-93
2021/11/16 02:41:09;;;;;;;72.40;27.63;;;9.60;99.90;;;;;;5035165;28;20169;-94
2021/11/16 02:43:38;;;;;;;78.72;28.20;;;9.70;99.90;;;;;;5034926;28;20083;-94
2021/11/16 02:46:04;;;;;;;93.68;31.13;;;9.60;99.90;;;;;;5034480;28;20028;-93
2021/11/16 02:48:32;;;;;;;89.55;31.50;;;9.60;99.90;;;;;;5034802;28;20038;-93
2021/11/16 02:51:03;;;;;;;74.32;27.50;;;9.50;99.90;;;;;;5034842;28;20029;-93
2021/11/16 02:53:29;;;;;;;84.68;30.23;;;9.50;99.90;;;;;;5034770;28;20033;-93
2021/11/16 02:55:55;;;;;;;68.63;26.30;;;9.50;99.90;;;;;;5034367;28;20053;-94
2021/11/16 02:58:23;;;;;;;65.90;26.33;;;9.50;99.90;;;;;;5034747;28;20069;-93
2021/11/16 03:00:53;;;;;;;65.28;24.30;;;9.60;99.90;;;;;;5034779;28;20095;-93
2021/11/16 03:03:20;;;;;;;67.60;25.27;;;9.60;99.90;;;;;;5034469;28;20036;-95
2021/11/16 03:05:46;;;;;;;76.15;27.35;;;9.60;99.90;;;;;;5034437;28;20038;-94
2021/11/16 03:08:23;;;;;;;69.90;26.48;;;9.60;99.90;;;;;;5035343;28;20022;-94
2021/11/16 03:10:51;;;;;;;74.97;27.58;;;9.50;99.90;;;;;;5034761;28;20112;-92
2021/11/16 03:13:18;;;;;;;78.72;28.73;;;9.50;99.90;;;;;;5034131;28;20030;-93
2021/11/16 03:15:45;;;;;;;73.05;26.50;;;9.60;99.90;;;;;;5034016;28;20028;-93
2021/11/16 03:18:11;;;;;;;69.38;25.85;;;9.50;99.90;;;;;;5034117;28;20044;-93
2021/11/16 03:20:38;;;;;;;58.13;23.13;;;9.60;99.90;;;;;;5034102;28;20025;-93
2021/11/16 03:23:14;;;;;;;55.72;22.73;;;9.60;99.90;;;;;;5034274;28;20053;-92
2021/11/16 03:25:52;;;;;;;56.55;23.45;;;9.70;99.90;;;;;;5034250;28;20026;-93
2021/11/16 03:28:20;;;;;;;50.92;19.33;;;9.70;99.90;;;;;;5034325;28;20601;-94
2021/11/16 03:30:49;;;;;;;46.05;18.80;;;9.70;99.90;;;;;;5034115;28;20430;-94
2021/11/16 03:33:16;;;;;;;45.90;18.70;;;9.70;99.90;;;;;;5033879;28;20112;-94
2021/11/16 03:35:42;;;;;;;52.25;22.23;;;9.70;99.90;;;;;;5033437;28;20092;-93
2021/11/16 03:38:10;;;;;;;56.50;23.55;;;9.70;99.90;;;;;;5033334;28;20121;-93
2021/11/16 03:40:37;;;;;;;61.72;24.48;;;9.70;99.90;;;;;;5033732;28;20071;-93
2021/11/16 03:43:04;;;;;;;45.22;19.50;;;9.70;99.90;;;;;;5033990;28;20053;-95
2021/11/16 03:45:30;;;;;;;64.00;26.00;;;9.70;99.90;;;;;;5033553;28;20093;-93
2021/11/16 03:47:59;;;;;;;67.43;27.33;;;9.60;99.90;;;;;;5033508;28;20071;-93
2021/11/16 03:50:27;;;;;;;79.15;28.83;;;9.60;99.90;;;;;;5033518;28;20079;-94
2021/11/16 03:52:56;;;;;;;87.88;29.70;;;9.60;99.90;;;;;;5033710;28;20022;-94
2021/11/16 03:55:24;;;;;;;87.32;30.05;;;9.60;99.90;;;;;;5033452;28;20053;-94
2021/11/16 03:57:54;;;;;;;85.68;28.92;;;9.60;99.90;;;;;;5032608;28;20041;-93
2021/11/16 04:00:25;;;;;;;80.73;27.07;;;9.50;99.90;;;;;;5033685;28;20506;-94
2021/11/16 04:02:50;;;;;;;70.00;25.38;;;9.50;99.90;;;;;;5033340;28;20034;-93
2021/11/16 04:05:16;;;;;;;65.93;22.65;;;9.50;99.90;;;;;;5032045;28;20430;-94
2021/11/16 04:07:43;;;;;;;29.83;12.48;;;9.50;99.90;;;;;;5033415;28;20032;-94
2021/11/16 04:10:12;;;;;;;27.42;11.30;;;9.50;99.90;;;;;;5033771;28;20048;-93
2021/11/16 04:12:39;;;;;;;26.40;12.52;;;9.50;99.90;;;;;;5033479;28;20399;-92
2021/11/16 04:15:07;;;;;;;34.08;14.15;;;9.50;99.90;;;;;;5032997;28;20018;-93
2021/11/16 04:17:33;;;;;;;30.42;14.65;;;9.40;99.90;;;;;;5033051;28;20037;-93
2021/11/16 04:20:00;;;;;;;30.52;13.65;;;9.40;99.90;;;;;;5033285;28;20124;-94
2021/11/16 04:22:27;;;;;;;28.45;11.23;;;9.40;99.90;;;;;;5033147;28;20057;-96
2021/11/16 04:24:52;;;;;;;28.80;12.52;;;9.40;99.90;;;;;;5032931;28;20029;-94
2021/11/16 04:27:18;;;;;;;23.33;9.35;;;9.40;99.90;;;;;;5033370;28;20540;-94
2021/11/16 04:29:44;;;;;;;18.15;9.27;;;9.40;99.90;;;;;;5033121;28;20384;-94
2021/11/16 04:32:10;;;;;;;21.67;9.02;;;9.30;99.90;;;;;;5032762;28;20029;-94
2021/11/16 04:34:36;;;;;;;19.45;9.48;;;9.40;99.90;;;;;;5033137;28;20083;-94
2021/11/16 04:37:02;;;;;;;18.65;9.30;;;9.40;99.90;;;;;;5033435;28;20454;-94
2021/11/16 04:39:28;;;;;;;19.17;9.32;;;9.40;99.90;;;;;;5034415;28;20021;-94
2021/11/16 04:41:54;;;;;;;14.77;7.15;;;9.30;99.90;;;;;;5035989;28;20033;-93
2021/11/16 04:44:20;;;;;;;16.23;7.43;;;9.30;99.90;;;;;;5046141;28;20021;-92
2021/11/16 04:46:46;;;;;;;14.95;7.32;;;9.30;99.90;;;;;;5045856;28;20036;-92
2021/11/16 04:50:02;;;;;;;16.85;8.40;;;9.20;99.90;;;;;;5044629;28;20026;-91
2021/11/16 05:02:42;;;;;;;6.35;3.20;;;9.20;99.90;;;;;;5035032;28;20033;-93
2021/11/16 05:05:20;;;;;;;5.32;2.90;;;9.20;99.90;;;;;;5033535;28;20044;-93
2021/11/16 05:07:51;;;;;;;6.85;2.67;;;9.20;99.90;;;;;;5033332;28;20040;-93
2021/11/16 05:10:17;;;;;;;7.50;3.55;;;9.20;99.90;;;;;;5036210;28;20052;-94
2021/11/16 05:12:42;;;;;;;8.82;3.47;;;9.20;99.90;;;;;;5037424;28;20555;-93
2021/11/16 05:15:14;;;;;;;10.65;4.43;;;9.20;99.90;;;;;;5036925;28;20072;-95
2021/11/16 05:17:40;;;;;;;6.63;3.42;;;9.20;99.90;;;;;;5037214;28;20124;-94
2021/11/16 05:20:07;;;;;;;8.32;3.85;;;9.20;99.90;;;;;;5037251;28;20113;-96
2021/11/16 05:22:33;;;;;;;9.55;4.50;;;9.20;99.90;;;;;;5036801;28;20029;-94
2021/11/16 05:24:59;;;;;;;8.18;3.65;;;9.20;99.90;;;;;;5036730;28;20096;-93
2021/11/16 05:27:25;;;;;;;9.57;4.55;;;9.20;99.90;;;;;;5036675;28;20111;-95
2021/11/16 05:29:51;;;;;;;7.70;3.72;;;9.20;99.90;;;;;;5036987;28;20065;-94
2021/11/16 05:32:16;;;;;;;13.07;4.85;;;9.20;99.90;;;;;;5036441;28;20029;-93
2021/11/16 05:34:42;;;;;;;10.43;3.92;;;9.10;99.90;;;;;;5035980;28;20045;-94
2021/11/16 05:37:08;;;;;;;8.02;4.05;;;9.20;99.90;;;;;;5036269;28;20049;-93
2021/11/16 05:39:35;;;;;;;5.88;3.63;;;9.10;99.90;;;;;;5036907;28;20545;-94
2021/11/16 05:42:01;;;;;;;12.50;4.40;;;9.20;99.90;;;;;;5037037;28;20053;-94
2021/11/16 05:44:28;;;;;;;9.50;4.32;;;9.10;99.90;;;;;;5037048;28;20028;-94
2021/11/16 05:46:55;;;;;;;6.68;3.70;;;9.20;99.90;;;;;;5037059;28;20026;-93
2021/11/16 05:49:20;;;;;;;13.38;5.78;;;9.20;99.90;;;;;;5036358;28;20379;-94
2021/11/16 05:51:46;;;;;;;11.18;4.82;;;9.20;99.90;;;;;;5036169;28;20030;-92
2021/11/16 05:54:17;;;;;;;11.05;5.28;;;9.10;99.90;;;;;;5036103;28;20036;-93
2021/11/16 05:56:44;;;;;;;11.63;5.45;;;9.10;99.90;;;;;;5036075;28;20080;-93
2021/11/16 05:59:10;;;;;;;10.98;4.50;;;9.10;99.90;;;;;;5036083;28;20037;-93
2021/11/16 06:01:36;;;;;;;9.27;4.38;;;9.10;99.90;;;;;;5036123;28;20021;-94
2021/11/16 06:04:02;;;;;;;9.45;5.00;;;9.10;99.90;;;;;;5035747;28;20498;-93
2021/11/16 06:06:32;;;;;;;10.63;5.30;;;9.00;99.90;;;;;;5035531;28;20029;-93
2021/11/16 06:09:00;;;;;;;16.25;6.10;;;9.00;99.90;;;;;;5035457;28;20021;-93
2021/11/16 06:11:26;;;;;;;16.70;7.38;;;9.00;99.90;;;;;;5035743;28;20034;-93
2021/11/16 06:13:55;;;;;;;11.30;5.45;;;9.00;99.90;;;;;;5036135;28;20033;-94
2021/11/16 06:16:20;;;;;;;14.27;5.60;;;9.10;99.90;;;;;;5036570;28;20029;-92
2021/11/16 06:18:55;;;;;;;13.52;5.80;;;9.00;99.90;;;;;;5036887;28;20072;-92
2021/11/16 06:21:22;;;;;;;16.42;6.15;;;9.00;99.90;;;;;;5036128;28;20032;-91
2021/11/16 06:23:48;;;;;;;11.95;5.80;;;9.00;99.90;;;;;;5037625;28;20026;-94
2021/11/16 06:26:14;;;;;;;15.15;7.03;;;9.00;99.90;;;;;;5036040;28;20017;-93
2021/11/16 06:28:40;;;;;;;16.75;7.75;;;9.00;99.90;;;;;;5033847;28;20044;-94
2021/11/16 06:31:06;;;;;;;14.23;6.03;;;9.00;99.90;;;;;;5022935;28;20446;-94
2021/11/16 06:33:32;;;;;;;19.05;8.55;;;9.00;99.90;;;;;;5027016;28;20036;-92
2021/11/16 06:35:58;;;;;;;17.58;6.80;;;9.00;99.90;;;;;;5026156;28;20050;-92
2021/11/16 06:38:23;;;;;;;26.38;8.57;;;9.00;99.90;;;;;;5028183;28;20677;-91
2021/11/16 06:40:49;;;;;;;16.27;6.10;;;9.00;99.90;;;;;;5028414;28;20103;-93
2021/11/16 06:43:44;;;;;;;25.27;10.30;;;9.00;99.90;;;;;;5022724;28;20026;-93
2021/11/16 06:46:10;;;;;;;30.65;11.63;;;9.00;99.90;;;;;;5028368;28;20112;-93
2021/11/16 06:48:35;;;;;;;32.38;12.98;;;9.00;99.90;;;;;;5024878;28;20118;-93
2021/11/16 06:51:01;;;;;;;30.42;12.25;;;9.10;99.90;;;;;;5026793;28;20064;-94
2021/11/16 06:53:34;;;;;;;33.20;13.27;;;9.00;99.90;;;;;;5026520;28;20018;-93
2021/11/16 06:56:01;;;;;;;36.65;13.90;;;9.00;99.90;;;;;;5026272;28;20486;-92
2021/11/16 06:58:28;;;;;;;35.30;13.13;;;9.00;99.90;;;;;;5023302;28;20037;-92
2021/11/16 07:00:55;;;;;;;32.88;13.30;;;9.10;99.90;;;;;;5028745;28;20036;-94
2021/11/16 07:03:24;;;;;;;31.38;12.38;;;9.10;99.90;;;;;;5026773;28;20049;-94
2021/11/16 07:05:56;;;;;;;30.25;13.02;;;9.10;99.90;;;;;;5028147;28;20022;-93
2021/11/16 07:08:34;;;;;;;17.42;7.00;;;9.10;99.90;;;;;;5023463;28;20064;-93
2021/11/16 07:11:11;;;;;;;26.73;10.80;;;9.10;99.90;;;;;;5024442;28;20033;-93
2021/11/16 07:14:04;;;;;;;27.63;12.18;;;9.10;99.90;;;;;;5027945;28;20022;-94
2021/11/16 07:16:55;;;;;;;31.42;14.18;;;9.10;99.90;;;;;;5026753;28;20029;-94
2021/11/16 07:19:34;;;;;;;24.95;10.07;;;9.10;99.90;;;;;;5022142;28;20036;-94
2021/11/16 07:22:05;;;;;;;32.28;13.75;;;9.10;99.90;;;;;;5022428;28;20030;-95
2021/11/16 07:24:32;;;;;;;34.60;15.18;;;9.10;99.90;;;;;;5023713;28;20425;-94
2021/11/16 07:27:05;;;;;;;30.77;13.55;;;9.10;99.90;;;;;;5026510;28;20030;-95
2021/11/16 07:29:51;;;;;;;32.30;14.68;;;9.20;99.90;;;;;;5027757;28;20076;-94
2021/11/16 07:32:27;;;;;;;18.90;8.82;;;9.10;99.90;;;;;;5031567;28;20045;-92
2021/11/16 07:35:02;;;;;;;29.50;13.23;;;9.10;99.90;;;;;;5033226;28;20037;-94
2021/11/16 07:37:34;;;;;;;27.83;12.70;;;9.20;99.90;;;;;;5033067;28;20041;-93
2021/11/16 07:40:07;;;;;;;17.45;8.40;;;9.20;99.90;;;;;;5028213;28;20029;-94
2021/11/16 07:42:59;;;;;;;31.77;14.73;;;9.20;99.90;;;;;;5025698;28;20076;-95
2021/11/16 07:45:33;;;;;;;20.52;9.98;;;9.20;99.90;;;;;;5018839;28;20152;-93
2021/11/16 07:48:10;;;;;;;23.83;10.95;;;9.20;99.90;;;;;;5030813;28;20059;-94
2021/11/16 07:50:40;;;;;;;26.58;12.88;;;9.20;99.90;;;;;;5034731;28;20487;-94
2021/11/16 07:53:15;;;;;;;29.98;13.30;;;9.20;99.90;;;;;;5034426;28;20053;-95
2021/11/16 07:55:44;;;;;;;21.70;10.52;;;9.20;99.90;;;;;;5033233;28;20562;-95
2021/11/16 07:58:12;;;;;;;20.58;9.60;;;9.20;99.90;;;;;;5028773;28;20044;-94
2021/11/16 08:00:42;;;;;;;21.08;10.63;;;9.20;99.90;;;;;;5017280;28;20021;-94
2021/11/16 08:03:12;;;;;;;28.42;14.55;;;9.20;99.90;;;;;;5012181;28;20030;-93
2021/11/16 08:11:20;;;;;;;16.52;9.15;;;9.30;99.90;;;;;;5014692;28;20029;-94
2021/11/16 08:14:05;;;;;;;31.08;13.30;;;9.30;99.90;;;;;;5031186;28;20491;-94
2021/11/16 08:16:32;;;;;;;20.15;10.27;;;9.30;99.90;;;;;;5029566;28;20025;-94
2021/11/16 08:19:06;;;;;;;27.77;12.10;;;9.30;99.90;;;;;;5031437;28;20037;-95
2021/11/16 08:21:35;;;;;;;22.65;11.32;;;9.30;99.90;;;;;;5031282;28;20033;-95
2021/11/16 08:24:10;;;;;;;25.08;11.68;;;9.30;99.90;;;;;;5028581;28;20036;-95
2021/11/16 08:26:55;;;;;;;23.08;10.30;;;9.30;99.90;;;;;;5031028;28;20021;-94
2021/11/16 08:29:42;;;;;;;27.92;11.93;;;9.40;99.90;;;;;;5027601;28;20032;-94
2021/11/16 08:32:14;;;;;;;25.58;11.43;;;9.40;99.90;;;;;;5029728;28;20033;-94
2021/11/16 08:34:58;;;;;;;27.33;11.18;;;9.40;99.90;;;;;;5029080;28;20533;-93
2021/11/16 08:37:29;;;;;;;25.63;10.02;;;9.40;99.90;;;;;;5030316;28;20049;-92
2021/11/16 08:40:03;;;;;;;27.48;11.73;;;9.50;99.90;;;;;;5031011;28;20479;-93
2021/11/16 08:42:33;;;;;;;29.65;12.65;;;9.40;99.90;;;;;;5023256;28;20498;-92
2021/11/16 08:45:12;;;;;;;26.08;10.13;;;9.50;99.90;;;;;;5022726;28;20029;-94
2021/11/16 08:47:48;;;;;;;29.73;12.70;;;9.50;99.90;;;;;;5020304;28;20072;-94
2021/11/16 08:50:28;;;;;;;26.25;11.35;;;9.50;99.90;;;;;;5021886;28;20014;-93
2021/11/16 08:52:58;;;;;;;35.65;13.13;;;9.50;99.90;;;;;;5021152;28;20029;-93
2021/11/16 08:55:29;;;;;;;25.20;10.60;;;9.60;99.90;;;;;;5020438;28;20025;-93
2021/11/16 08:57:57;;;;;;;31.95;11.85;;;9.60;99.90;;;;;;5020939;28;20059;-92
2021/11/16 09:00:34;;;;;;;30.20;12.15;;;9.60;99.90;;;;;;5024596;28;20037;-95
2021/11/16 09:03:12;;;;;;;28.52;12.35;;;9.60;99.90;;;;;;5027394;28;20040;-96
2021/11/16 09:05:45;;;;;;;27.02;12.38;;;9.70;99.90;;;;;;5026003;28;20032;-95
2021/11/16 09:08:25;;;;;;;29.83;13.38;;;9.70;99.90;;;;;;5027895;28;20060;-96
2021/11/16 09:10:57;;;;;;;31.45;13.60;;;9.80;99.90;;;;;;5031511;28;20069;-96
2021/11/16 09:13:26;;;;;;;29.45;11.68;;;9.70;99.90;;;;;;5018939;28;20036;-95
2021/11/16 09:16:06;;;;;;;30.08;13.48;;;9.80;99.90;;;;;;5022517;28;20045;-95
2021/11/16 09:18:41;;;;;;;32.75;12.70;;;9.80;99.90;;;;;;5024648;28;20037;-96
2021/11/16 09:21:11;;;;;;;27.70;13.38;;;9.80;99.90;;;;;;5024406;28;20025;-96
2021/11/16 09:23:41;;;;;;;31.53;13.40;;;9.90;99.90;;;;;;5024467;28;20153;-96
2021/11/16 09:26:09;;;;;;;24.88;11.18;;;9.90;99.90;;;;;;5024479;28;20054;-95
2021/11/16 09:28:35;;;;;;;31.48;12.38;;;10.00;99.90;;;;;;5024879;28;20091;-96
2021/11/16 09:31:26;;;;;;;27.35;11.35;;;10.10;99.90;;;;;;5022246;28;20022;-95
2021/11/16 09:33:55;;;;;;;24.20;10.18;;;10.10;99.90;;;;;;5023826;28;20117;-95
2021/11/16 09:36:29;;;;;;;24.60;9.63;;;10.20;99.90;;;;;;5024335;28;20073;-95
2021/11/16 09:39:06;;;;;;;20.10;10.13;;;10.30;99.90;;;;;;5022574;28;20092;-95
2021/11/16 09:42:02;;;;;;;26.20;10.85;;;10.30;99.90;;;;;;5036615;28;20030;-96
2021/11/16 09:44:32;;;;;;;18.70;8.88;;;10.40;99.90;;;;;;5027617;28;20032;-96
2021/11/16 09:47:16;;;;;;;21.40;9.40;;;10.60;99.90;;;;;;5038000;28;20053;-96
2021/11/16 09:50:04;;;;;;;18.15;9.32;;;10.70;99.90;;;;;;5038676;28;20515;-96
2021/11/16 09:52:43;;;;;;;14.80;8.25;;;10.70;99.90;;;;;;5030344;28;20030;-95
2021/11/16 09:55:20;;;;;;;12.88;6.97;;;10.90;99.90;;;;;;5031942;28;20033;-96
2021/11/16 09:57:52;;;;;;;15.35;8.23;;;10.90;99.90;;;;;;5029537;28;20040;-96
2021/11/16 10:00:32;;;;;;;15.30;6.13;;;11.00;99.90;;;;;;5038639;28;20029;-96
2021/11/16 10:03:17;;;;;;;12.23;6.40;;;11.00;99.90;;;;;;5035065;28;20200;-96
2021/11/16 10:05:55;;;;;;;11.30;6.05;;;11.00;99.90;;;;;;5048319;28;19997;-96
2021/11/16 10:08:33;;;;;;;10.68;5.18;;;11.10;99.90;;;;;;5041931;28;20040;-95
2021/11/16 10:10:59;;;;;;;14.52;6.38;;;11.10;99.90;;;;;;5031162;28;20029;-96
2021/11/16 10:13:29;;;;;;;12.40;6.35;;;11.10;99.90;;;;;;5033339;28;20036;-96
2021/11/16 10:15:59;;;;;;;10.05;5.95;;;11.10;99.90;;;;;;5051233;28;20022;-95
2021/11/16 10:18:32;;;;;;;11.63;5.75;;;11.10;99.90;;;;;;5041805;28;20037;-95
2021/11/16 10:20:58;;;;;;;11.40;5.05;;;11.10;99.90;;;;;;5042589;28;20044;-95
2021/11/16 10:23:47;;;;;;;10.35;5.30;;;11.10;99.90;;;;;;5034230;28;20056;-96
2021/11/16 10:26:16;;;;;;;10.13;5.18;;;11.10;99.90;;;;;;5035416;28;20030;-96
2021/11/16 10:28:47;;;;;;;11.10;5.65;;;11.00;99.90;;;;;;5037033;28;20014;-96
2021/11/16 10:31:32;;;;;;;10.13;4.65;;;11.00;99.90;;;;;;5032899;28;20121;-95
2021/11/16 10:33:59;;;;;;;10.23;5.00;;;11.00;99.90;;;;;;5038209;28;20025;-96
2021/11/16 10:36:28;;;;;;;10.88;5.95;;;11.00;99.90;;;;;;5029090;28;20041;-95
2021/11/16 10:38:59;;;;;;;14.25;6.20;;;11.00;99.90;;;;;;5024740;28;20022;-96
2021/11/16 10:41:34;;;;;;;12.90;6.32;;;10.90;99.90;;;;;;5032399;28;20433;-95
2021/11/16 10:44:04;;;;;;;12.52;5.78;;;10.90;99.90;;;;;;5042844;28;20088;-96
2021/11/16 10:46:34;;;;;;;11.35;5.65;;;10.90;99.90;;;;;;5042660;28;20025;-95
2021/11/16 10:49:13;;;;;;;10.17;5.57;;;10.90;99.90;;;;;;5036618;28;20156;-95
2021/11/16 10:51:42;;;;;;;12.73;5.57;;;10.90;99.90;;;;;;5032006;28;20331;-96
2021/11/16 10:54:15;;;;;;;13.90;6.63;;;10.90;99.90;;;;;;5031562;28;20028;-96
2021/11/16 10:56:45;;;;;;;11.82;6.05;;;10.90;99.90;;;;;;5031432;28;20241;-95
2021/11/16 10:59:19;;;;;;;12.25;5.95;;;10.90;99.90;;;;;;5030800;28;20025;-96
2021/11/16 11:01:53;;;;;;;13.18;6.00;;;10.90;99.90;;;;;;5028188;28;20125;-96
2021/11/16 11:04:45;;;;;;;10.18;4.63;;;10.90;99.90;;;;;;5033158;28;20270;-96
2021/11/16 11:07:12;;;;;;;8.80;4.28;;;10.90;99.90;;;;;;5018997;28;20107;-95
2021/11/16 11:09:42;;;;;;;11.80;5.30;;;10.90;99.90;;;;;;5033420;28;20021;-96
2021/11/16 11:12:22;;;;;;;11.50;5.28;;;10.90;99.90;;;;;;5031075;28;20033;-96
2021/11/16 11:17:32;;;;;;;;;;;10.90;99.90;;;;;;5233660;23;20098;-95
2021/11/16 11:20:08;;;;;;;8.00;3.97;;;10.90;99.90;;;;;;4982445;28;19910;-96
2021/11/16 11:22:40;;;;;;;8.15;4.28;;;10.90;99.90;;;;;;4979349;28;20133;-96
2021/11/16 11:25:35;;;;;;;8.55;4.28;;;10.90;99.90;;;;;;4977542;28;20027;-95
2021/11/16 11:28:09;;;;;;;9.82;4.18;;;10.90;99.90;;;;;;4974341;28;20035;-96
2021/11/16 11:30:50;;;;;;;9.98;4.57;;;10.90;99.90;;;;;;4978554;28;20026;-96
2021/11/16 11:33:16;;;;;;;;;;;10.90;99.90;;;;;;4982773;28;20034;-94
2021/11/16 11:35:42;;;;;;;6.55;3.90;;;10.90;99.90;;;;;;4982569;28;19910;-96
2021/11/16 11:38:13;;;;;;;7.50;4.13;;;10.90;99.90;;;;;;4965294;29;20054;-96
2021/11/16 11:40:42;;;;;;;7.32;3.60;;;10.90;99.90;;;;;;4982913;28;20035;-95
2021/11/16 11:43:18;;;;;;;6.85;2.97;;;11.00;99.90;;;;;;4983833;28;20034;-95
2021/11/16 11:45:48;;;;;;;8.43;3.08;;;11.00;99.90;;;;;;4989447;28;20030;-94
2021/11/16 11:48:22;;;;;;;6.28;3.35;;;11.00;99.90;;;;;;4986798;28;20042;-96
2021/11/16 11:51:00;;;;;;;8.27;3.67;;;11.00;99.90;;;;;;4982666;28;20023;-96
2021/11/16 11:53:33;;;;;;;7.43;3.58;;;11.10;99.90;;;;;;4981600;28;20027;-96
2021/11/16 11:56:13;;;;;;;7.93;3.90;;;11.10;99.90;;;;;;4980026;28;20078;-96
2021/11/16 11:58:47;;;;;;;7.40;3.30;;;11.10;99.90;;;;;;4980020;28;20042;-96
2021/11/16 12:01:21;;;;;;;3.78;2.30;;;11.10;99.90;;;;;;4979973;28;20058;-95
2021/11/16 12:03:48;;;;;;;4.30;2.60;;;11.10;99.90;;;;;;4980102;28;20031;-96
2021/11/16 12:06:17;;;;;;;4.88;2.22;;;11.10;99.90;;;;;;4980307;28;20030;-96
2021/11/16 12:08:47;;;;;;;4.67;2.43;;;11.10;99.90;;;;;;4978695;28;20054;-96
2021/11/16 12:11:20;;;;;;;5.70;2.75;;;11.10;99.90;;;;;;4982344;28;20031;-96
2021/11/16 12:13:48;;;;;;;3.80;2.63;;;11.10;99.90;;;;;;4978839;28;20022;-95
2021/11/16 12:16:21;;;;;;;3.88;2.25;;;11.10;99.90;;;;;;4975366;28;20070;-95
2021/11/16 12:19:01;;;;;;;5.65;2.80;;;11.10;99.90;;;;;;4973144;28;20036;-96
2021/11/16 12:21:42;;;;;;;4.00;2.80;;;11.10;99.90;;;;;;4982645;28;20023;-95
2021/11/16 12:24:13;;;;;;;;;;;11.00;99.90;;;;;;4987232;28;20027;-95
2021/11/16 12:26:54;;;;;;;3.95;3.08;;;11.00;99.90;;;;;;4987081;28;19917;-96
2021/11/16 12:29:23;;;;;;;4.78;2.97;;;11.00;99.90;;;;;;4974098;28;20098;-95
2021/11/16 12:31:51;;;;;;;6.85;3.70;;;10.90;99.90;;;;;;4961838;28;20038;-94
2021/11/16 12:34:40;;;;;;;4.80;3.22;;;10.90;99.90;;;;;;4964493;28;20030;-96
2021/11/16 12:37:07;;;;;;;12.35;4.68;;;10.90;99.90;;;;;;4966772;28;20074;-94
2021/11/16 12:39:51;;;;;;;6.30;3.53;;;10.90;99.90;;;;;;4961788;28;20051;-93
2021/11/16 12:42:18;;;;;;;8.93;4.43;;;10.90;99.90;;;;;;4969053;28;20030;-93
2021/11/16 12:45:00;;;;;;;8.05;3.70;;;10.90;99.90;;;;;;4963652;28;20035;-92
2021/11/16 12:47:31;;;;;;;9.02;6.05;;;11.00;99.90;;;;;;4988170;28;20046;-92
2021/11/16 12:50:15;;;;;;;5.60;3.25;;;11.00;99.90;;;;;;4970034;28;20058;-92
2021/11/16 12:52:50;;;;;;;4.57;2.38;;;11.10;99.90;;;;;;4969812;28;20433;-92
2021/11/16 12:55:31;;;;;;;4.88;2.83;;;11.00;99.90;;;;;;4956321;28;20024;-92
2021/11/16 12:58:18;;;;;;;5.15;1.95;;;11.00;99.90;;;;;;4960769;28;20043;-91
2021/11/16 13:00:43;;;;;;;3.75;2.42;;;11.00;99.90;;;;;;4978335;28;20037;-91
2021/11/16 13:03:09;;;;;;;3.25;2.30;;;11.00;99.90;;;;;;4979612;28;20129;-93
2021/11/16 13:05:43;;;;;;;4.57;2.50;;;11.00;99.90;;;;;;4977344;28;20027;-92
2021/11/16 13:08:11;;;;;;;2.95;1.70;;;11.00;99.90;;;;;;4979195;28;20031;-92
2021/11/16 13:10:55;;;;;;;2.15;1.35;;;11.00;99.90;;;;;;4978733;28;20055;-92
2021/11/16 13:13:27;;;;;;;4.10;1.67;;;10.90;99.90;;;;;;4975038;28;20416;-92
2021/11/16 13:18:59;;;;;;;7.68;1.67;;;10.90;99.90;;;;;;4926192;29;20154;-92
2021/11/16 13:21:26;;;;;;;3.22;1.85;;;10.90;99.90;;;;;;4934171;29;20122;-92